sensor_id;sensor_type;location;lat;lon;timestamp;temperature;humidity
65374;SHT31;52070;53.760;9.678;2023-05-07T00:00:48;9.14;87.61
65374;SHT31;52070;53.760;9.678;2023-05-07T00:03:16;9.11;87.44
65374;SHT31;52070;53.760;9.678;2023-05-07T00:05:44;9.11;87.61
65374;SHT31;52070;53.760;9.678;2023-05-07T00:08:12;9.08;87.15
65374;SHT31;52070;53.760;9.678;2023-05-07T00:10:39;9.08;87.04
65374;SHT31;52070;53.760;9.678;2023-05-07T00:13:07;9.04;86.92
65374;SHT31;52070;53.760;9.678;2023-05-07T00:15:34;9.15;86.91
65374;SHT31;52070;53.760;9.678;2023-05-07T00:18:01;9.11;86.78
65374;SHT31;52070;53.760;9.678;2023-05-07T00:20:28;9.11;86.72
65374;SHT31;52070;53.760;9.678;2023-05-07T00:22:55;9.04;86.79
65374;SHT31;52070;53.760;9.678;2023-05-07T00:25:22;9.04;86.84
65374;SHT31;52070;53.760;9.678;2023-05-07T00:27:49;9.11;86.74
65374;SHT31;52070;53.760;9.678;2023-05-07T00:30:18;9.04;86.56
65374;SHT31;52070;53.760;9.678;2023-05-07T00:32:45;9.04;86.77
65374;SHT31;52070;53.760;9.678;2023-05-07T00:35:12;9.07;86.79
65374;SHT31;52070;53.760;9.678;2023-05-07T00:37:39;9.07;86.64
65374;SHT31;52070;53.760;9.678;2023-05-07T00:40:07;9.07;86.74
65374;SHT31;52070;53.760;9.678;2023-05-07T00:42:34;9.05;86.53
65374;SHT31;52070;53.760;9.678;2023-05-07T00:45:01;9.04;86.71
65374;SHT31;52070;53.760;9.678;2023-05-07T00:47:30;8.94;86.64
65374;SHT31;52070;53.760;9.678;2023-05-07T00:49:57;8.92;86.40
65374;SHT31;52070;53.760;9.678;2023-05-07T00:52:26;8.91;86.20
65374;SHT31;52070;53.760;9.678;2023-05-07T00:54:53;8.96;85.62
65374;SHT31;52070;53.760;9.678;2023-05-07T00:57:21;8.96;85.45
65374;SHT31;52070;53.760;9.678;2023-05-07T00:59:48;9.03;85.27
65374;SHT31;52070;53.760;9.678;2023-05-07T01:02:15;8.92;85.27
65374;SHT31;52070;53.760;9.678;2023-05-07T01:04:44;8.92;85.48
65374;SHT31;52070;53.760;9.678;2023-05-07T01:07:11;8.88;85.62
65374;SHT31;52070;53.760;9.678;2023-05-07T01:09:39;8.94;85.90
65374;SHT31;52070;53.760;9.678;2023-05-07T01:12:07;8.96;85.96
65374;SHT31;52070;53.760;9.678;2023-05-07T01:14:34;8.91;85.61
65374;SHT31;52070;53.760;9.678;2023-05-07T01:17:01;8.96;85.76
65374;SHT31;52070;53.760;9.678;2023-05-07T01:19:29;8.97;85.68
65374;SHT31;52070;53.760;9.678;2023-05-07T01:22:02;8.92;85.56
65374;SHT31;52070;53.760;9.678;2023-05-07T01:24:31;8.94;85.65
65374;SHT31;52070;53.760;9.678;2023-05-07T01:26:58;8.97;85.55
65374;SHT31;52070;53.760;9.678;2023-05-07T01:29:27;8.97;85.51
65374;SHT31;52070;53.760;9.678;2023-05-07T01:31:57;8.97;85.41
65374;SHT31;52070;53.760;9.678;2023-05-07T01:34:25;9.03;85.26
65374;SHT31;52070;53.760;9.678;2023-05-07T01:36:54;9.04;85.21
65374;SHT31;52070;53.760;9.678;2023-05-07T01:39:24;9.08;85.05
65374;SHT31;52070;53.760;9.678;2023-05-07T01:41:54;9.12;84.94
65374;SHT31;52070;53.760;9.678;2023-05-07T01:44:22;9.01;84.98
65374;SHT31;52070;53.760;9.678;2023-05-07T01:46:50;8.97;85.20
65374;SHT31;52070;53.760;9.678;2023-05-07T01:49:17;8.98;85.32
65374;SHT31;52070;53.760;9.678;2023-05-07T01:51:44;8.88;85.45
65374;SHT31;52070;53.760;9.678;2023-05-07T01:54:11;8.85;85.63
65374;SHT31;52070;53.760;9.678;2023-05-07T01:56:38;8.91;85.67
65374;SHT31;52070;53.760;9.678;2023-05-07T01:59:07;8.98;85.51
65374;SHT31;52070;53.760;9.678;2023-05-07T02:01:34;8.91;85.31
65374;SHT31;52070;53.760;9.678;2023-05-07T02:04:01;8.94;85.35
65374;SHT31;52070;53.760;9.678;2023-05-07T02:06:28;8.92;85.45
65374;SHT31;52070;53.760;9.678;2023-05-07T02:08:56;8.88;85.63
65374;SHT31;52070;53.760;9.678;2023-05-07T02:11:23;8.87;85.78
65374;SHT31;52070;53.760;9.678;2023-05-07T02:13:50;8.94;85.97
65374;SHT31;52070;53.760;9.678;2023-05-07T02:16:20;8.94;85.77
65374;SHT31;52070;53.760;9.678;2023-05-07T02:18:47;8.96;85.74
65374;SHT31;52070;53.760;9.678;2023-05-07T02:21:14;8.92;85.65
65374;SHT31;52070;53.760;9.678;2023-05-07T02:23:41;8.91;85.79
65374;SHT31;52070;53.760;9.678;2023-05-07T02:26:08;8.88;85.85
65374;SHT31;52070;53.760;9.678;2023-05-07T02:28:35;8.84;85.87
65374;SHT31;52070;53.760;9.678;2023-05-07T02:31:02;8.84;85.96
65374;SHT31;52070;53.760;9.678;2023-05-07T02:33:31;8.84;86.15
65374;SHT31;52070;53.760;9.678;2023-05-07T02:36:05;8.83;86.12
65374;SHT31;52070;53.760;9.678;2023-05-07T02:38:32;8.85;86.29
65374;SHT31;52070;53.760;9.678;2023-05-07T02:40:59;8.83;85.91
65374;SHT31;52070;53.760;9.678;2023-05-07T02:43:26;8.80;85.88
65374;SHT31;52070;53.760;9.678;2023-05-07T02:46:00;8.83;85.83
65374;SHT31;52070;53.760;9.678;2023-05-07T02:48:27;8.92;85.70
65374;SHT31;52070;53.760;9.678;2023-05-07T02:50:56;8.91;85.55
65374;SHT31;52070;53.760;9.678;2023-05-07T02:53:23;8.91;85.68
65374;SHT31;52070;53.760;9.678;2023-05-07T02:55:52;8.94;85.59
65374;SHT31;52070;53.760;9.678;2023-05-07T02:58:19;8.90;85.59
65374;SHT31;52070;53.760;9.678;2023-05-07T03:00:46;8.83;85.62
65374;SHT31;52070;53.760;9.678;2023-05-07T03:03:13;8.81;85.85
65374;SHT31;52070;53.760;9.678;2023-05-07T03:05:41;8.88;86.09
65374;SHT31;52070;53.760;9.678;2023-05-07T03:08:09;8.84;86.09
65374;SHT31;52070;53.760;9.678;2023-05-07T03:10:37;8.83;86.00
65374;SHT31;52070;53.760;9.678;2023-05-07T03:13:04;8.87;85.98
65374;SHT31;52070;53.760;9.678;2023-05-07T03:15:31;8.87;85.94
65374;SHT31;52070;53.760;9.678;2023-05-07T03:17:57;8.85;86.07
65374;SHT31;52070;53.760;9.678;2023-05-07T03:20:24;8.85;86.16
65374;SHT31;52070;53.760;9.678;2023-05-07T03:22:51;8.90;85.94
65374;SHT31;52070;53.760;9.678;2023-05-07T03:25:20;8.87;85.76
65374;SHT31;52070;53.760;9.678;2023-05-07T03:27:47;8.85;85.71
65374;SHT31;52070;53.760;9.678;2023-05-07T03:30:14;8.81;85.83
65374;SHT31;52070;53.760;9.678;2023-05-07T03:32:41;8.90;85.79
65374;SHT31;52070;53.760;9.678;2023-05-07T03:35:08;8.85;85.53
65374;SHT31;52070;53.760;9.678;2023-05-07T03:37:35;8.83;85.63
65374;SHT31;52070;53.760;9.678;2023-05-07T03:40:02;8.77;85.83
65374;SHT31;52070;53.760;9.678;2023-05-07T03:42:31;8.78;86.13
65374;SHT31;52070;53.760;9.678;2023-05-07T03:44:58;8.84;86.20
65374;SHT31;52070;53.760;9.678;2023-05-07T03:47:25;8.85;86.00
65374;SHT31;52070;53.760;9.678;2023-05-07T03:49:52;8.81;86.10
65374;SHT31;52070;53.760;9.678;2023-05-07T03:52:20;8.87;86.17
65374;SHT31;52070;53.760;9.678;2023-05-07T03:54:52;8.84;86.20
65374;SHT31;52070;53.760;9.678;2023-05-07T03:57:19;8.78;86.36
65374;SHT31;52070;53.760;9.678;2023-05-07T03:59:50;8.74;86.48
65374;SHT31;52070;53.760;9.678;2023-05-07T04:02:17;8.85;86.43
65374;SHT31;52070;53.760;9.678;2023-05-07T04:04:44;8.87;86.01
65374;SHT31;52070;53.760;9.678;2023-05-07T04:07:11;8.85;85.71
65374;SHT31;52070;53.760;9.678;2023-05-07T04:09:38;8.87;85.59
65374;SHT31;52070;53.760;9.678;2023-05-07T04:12:05;8.85;85.28
65374;SHT31;52070;53.760;9.678;2023-05-07T04:14:32;8.85;85.17
65374;SHT31;52070;53.760;9.678;2023-05-07T04:17:00;8.83;85.12
65374;SHT31;52070;53.760;9.678;2023-05-07T04:19:28;8.76;85.11
65374;SHT31;52070;53.760;9.678;2023-05-07T04:21:55;8.83;84.97
65374;SHT31;52070;53.760;9.678;2023-05-07T04:24:22;8.80;84.88
65374;SHT31;52070;53.760;9.678;2023-05-07T04:26:49;8.77;84.91
65374;SHT31;52070;53.760;9.678;2023-05-07T04:29:16;8.78;85.06
65374;SHT31;52070;53.760;9.678;2023-05-07T04:31:43;8.73;85.11
65374;SHT31;52070;53.760;9.678;2023-05-07T04:34:12;8.78;85.19
65374;SHT31;52070;53.760;9.678;2023-05-07T04:36:40;8.80;85.13
65374;SHT31;52070;53.760;9.678;2023-05-07T04:39:07;8.90;84.80
65374;SHT31;52070;53.760;9.678;2023-05-07T04:41:35;8.91;84.70
65374;SHT31;52070;53.760;9.678;2023-05-07T04:44:02;8.94;84.43
65374;SHT31;52070;53.760;9.678;2023-05-07T04:46:31;8.94;84.36
65374;SHT31;52070;53.760;9.678;2023-05-07T04:48:58;9.00;84.45
65374;SHT31;52070;53.760;9.678;2023-05-07T04:51:26;9.01;84.14
65374;SHT31;52070;53.760;9.678;2023-05-07T04:53:53;9.04;84.13
65374;SHT31;52070;53.760;9.678;2023-05-07T04:56:20;9.10;84.06
65374;SHT31;52070;53.760;9.678;2023-05-07T04:58:47;9.14;83.88
65374;SHT31;52070;53.760;9.678;2023-05-07T05:01:14;9.14;83.45
65374;SHT31;52070;53.760;9.678;2023-05-07T05:03:41;9.14;83.36
65374;SHT31;52070;53.760;9.678;2023-05-07T05:06:08;9.15;83.35
65374;SHT31;52070;53.760;9.678;2023-05-07T05:08:37;9.18;83.18
65374;SHT31;52070;53.760;9.678;2023-05-07T05:11:04;9.18;83.23
65374;SHT31;52070;53.760;9.678;2023-05-07T05:13:31;9.27;83.38
65374;SHT31;52070;53.760;9.678;2023-05-07T05:15:58;9.21;83.31
65374;SHT31;52070;53.760;9.678;2023-05-07T05:18:25;9.22;83.50
65374;SHT31;52070;53.760;9.678;2023-05-07T05:20:52;9.20;83.46
65374;SHT31;52070;53.760;9.678;2023-05-07T05:23:19;9.31;83.27
65374;SHT31;52070;53.760;9.678;2023-05-07T05:25:47;9.31;83.24
65374;SHT31;52070;53.760;9.678;2023-05-07T05:28:14;9.30;83.47
65374;SHT31;52070;53.760;9.678;2023-05-07T05:30:41;9.39;83.60
65374;SHT31;52070;53.760;9.678;2023-05-07T05:33:08;9.49;83.04
65374;SHT31;52070;53.760;9.678;2023-05-07T05:35:35;9.55;82.47
65374;SHT31;52070;53.760;9.678;2023-05-07T05:38:02;9.52;82.36
65374;SHT31;52070;53.760;9.678;2023-05-07T05:40:29;9.48;82.29
65374;SHT31;52070;53.760;9.678;2023-05-07T05:42:58;9.45;82.63
65374;SHT31;52070;53.760;9.678;2023-05-07T05:45:25;9.42;82.96
65374;SHT31;52070;53.760;9.678;2023-05-07T05:47:52;9.45;82.71
65374;SHT31;52070;53.760;9.678;2023-05-07T05:50:19;9.46;81.82
65374;SHT31;52070;53.760;9.678;2023-05-07T05:52:46;9.41;81.74
65374;SHT31;52070;53.760;9.678;2023-05-07T05:55:13;9.43;82.11
65374;SHT31;52070;53.760;9.678;2023-05-07T05:57:40;9.49;82.20
65374;SHT31;52070;53.760;9.678;2023-05-07T06:00:09;9.49;81.93
65374;SHT31;52070;53.760;9.678;2023-05-07T06:02:37;9.53;82.25
65374;SHT31;52070;53.760;9.678;2023-05-07T06:05:05;9.56;82.00
65374;SHT31;52070;53.760;9.678;2023-05-07T06:07:32;9.59;81.53
65374;SHT31;52070;53.760;9.678;2023-05-07T06:10:00;9.63;81.94
65374;SHT31;52070;53.760;9.678;2023-05-07T06:12:27;9.59;81.56
65374;SHT31;52070;53.760;9.678;2023-05-07T06:14:54;9.68;81.39
65374;SHT31;52070;53.760;9.678;2023-05-07T06:17:22;9.58;81.32
65374;SHT31;52070;53.760;9.678;2023-05-07T06:19:50;9.62;81.36
65374;SHT31;52070;53.760;9.678;2023-05-07T06:22:17;9.63;81.66
65374;SHT31;52070;53.760;9.678;2023-05-07T06:24:45;9.69;81.44
65374;SHT31;52070;53.760;9.678;2023-05-07T06:27:11;9.75;81.60
65374;SHT31;52070;53.760;9.678;2023-05-07T06:29:38;9.75;81.71
65374;SHT31;52070;53.760;9.678;2023-05-07T06:32:06;9.73;81.26
65374;SHT31;52070;53.760;9.678;2023-05-07T06:34:35;9.85;81.27
65374;SHT31;52070;53.760;9.678;2023-05-07T06:37:02;9.81;80.75
65374;SHT31;52070;53.760;9.678;2023-05-07T06:39:29;9.82;81.18
65374;SHT31;52070;53.760;9.678;2023-05-07T06:41:56;9.82;80.83
65374;SHT31;52070;53.760;9.678;2023-05-07T06:44:23;9.79;80.61
65374;SHT31;52070;53.760;9.678;2023-05-07T06:46:51;9.85;81.02
65374;SHT31;52070;53.760;9.678;2023-05-07T06:49:18;9.85;80.65
65374;SHT31;52070;53.760;9.678;2023-05-07T06:51:46;9.99;80.86
65374;SHT31;52070;53.760;9.678;2023-05-07T06:54:13;10.04;80.50
65374;SHT31;52070;53.760;9.678;2023-05-07T06:56:40;10.10;80.50
65374;SHT31;52070;53.760;9.678;2023-05-07T06:59:07;10.18;80.20
65374;SHT31;52070;53.760;9.678;2023-05-07T07:01:34;10.18;80.12
65374;SHT31;52070;53.760;9.678;2023-05-07T07:04:03;10.21;79.96
65374;SHT31;52070;53.760;9.678;2023-05-07T07:06:30;10.27;79.96
65374;SHT31;52070;53.760;9.678;2023-05-07T07:08:59;10.29;79.74
65374;SHT31;52070;53.760;9.678;2023-05-07T07:11:27;10.27;79.44
65374;SHT31;52070;53.760;9.678;2023-05-07T07:13:54;10.29;79.16
65374;SHT31;52070;53.760;9.678;2023-05-07T07:16:21;10.34;79.56
65374;SHT31;52070;53.760;9.678;2023-05-07T07:18:48;10.41;78.79
65374;SHT31;52070;53.760;9.678;2023-05-07T07:21:15;10.41;79.52
65374;SHT31;52070;53.760;9.678;2023-05-07T07:26:55;10.53;79.04
65374;SHT31;52070;53.760;9.678;2023-05-07T07:29:22;10.50;78.60
65374;SHT31;52070;53.760;9.678;2023-05-07T07:31:51;10.53;78.77
65374;SHT31;52070;53.760;9.678;2023-05-07T07:34:18;10.58;78.50
65374;SHT31;52070;53.760;9.678;2023-05-07T07:36:45;10.63;78.24
65374;SHT31;52070;53.760;9.678;2023-05-07T07:39:12;10.72;78.17
65374;SHT31;52070;53.760;9.678;2023-05-07T07:41:39;10.77;77.49
65374;SHT31;52070;53.760;9.678;2023-05-07T07:44:07;10.74;77.54
65374;SHT31;52070;53.760;9.678;2023-05-07T07:46:34;10.82;77.33
65374;SHT31;52070;53.760;9.678;2023-05-07T07:49:01;10.78;76.86
65374;SHT31;52070;53.760;9.678;2023-05-07T07:51:28;10.91;77.37
65374;SHT31;52070;53.760;9.678;2023-05-07T07:53:56;10.89;76.81
65374;SHT31;52070;53.760;9.678;2023-05-07T07:56:23;10.87;77.07
65374;SHT31;52070;53.760;9.678;2023-05-07T07:58:50;10.91;77.81
65374;SHT31;52070;53.760;9.678;2023-05-07T08:01:18;10.94;77.31
65374;SHT31;52070;53.760;9.678;2023-05-07T08:03:45;10.98;76.93
65374;SHT31;52070;53.760;9.678;2023-05-07T08:06:12;10.97;76.36
65374;SHT31;52070;53.760;9.678;2023-05-07T08:08:39;11.07;76.62
65374;SHT31;52070;53.760;9.678;2023-05-07T08:11:06;11.02;75.87
65374;SHT31;52070;53.760;9.678;2023-05-07T08:13:33;11.08;76.03
65374;SHT31;52070;53.760;9.678;2023-05-07T08:16:00;11.09;76.22
65374;SHT31;52070;53.760;9.678;2023-05-07T08:18:28;11.23;76.37
65374;SHT31;52070;53.760;9.678;2023-05-07T08:20:55;11.31;76.78
65374;SHT31;52070;53.760;9.678;2023-05-07T08:23:22;11.28;75.87
65374;SHT31;52070;53.760;9.678;2023-05-07T08:25:50;11.23;75.59
65374;SHT31;52070;53.760;9.678;2023-05-07T08:28:17;11.25;75.91
65374;SHT31;52070;53.760;9.678;2023-05-07T08:30:45;11.35;75.86
65374;SHT31;52070;53.760;9.678;2023-05-07T08:33:12;11.39;76.19
65374;SHT31;52070;53.760;9.678;2023-05-07T08:35:40;11.51;75.29
65374;SHT31;52070;53.760;9.678;2023-05-07T08:38:07;11.63;75.50
65374;SHT31;52070;53.760;9.678;2023-05-07T08:40:37;11.65;75.37
65374;SHT31;52070;53.760;9.678;2023-05-07T08:43:06;11.63;75.69
65374;SHT31;52070;53.760;9.678;2023-05-07T08:45:34;11.59;75.67
65374;SHT31;52070;53.760;9.678;2023-05-07T08:48:03;11.70;75.41
65374;SHT31;52070;53.760;9.678;2023-05-07T08:50:32;11.72;74.56
65374;SHT31;52070;53.760;9.678;2023-05-07T08:53:04;11.82;74.86
65374;SHT31;52070;53.760;9.678;2023-05-07T08:55:31;11.79;74.71
65374;SHT31;52070;53.760;9.678;2023-05-07T08:57:58;11.84;75.04
65374;SHT31;52070;53.760;9.678;2023-05-07T09:00:25;11.83;74.79
65374;SHT31;52070;53.760;9.678;2023-05-07T09:02:53;11.80;74.19
65374;SHT31;52070;53.760;9.678;2023-05-07T09:05:20;11.74;74.36
65374;SHT31;52070;53.760;9.678;2023-05-07T09:07:47;11.80;75.09
65374;SHT31;52070;53.760;9.678;2023-05-07T09:10:16;11.62;75.19
65374;SHT31;52070;53.760;9.678;2023-05-07T09:12:43;11.80;75.28
65374;SHT31;52070;53.760;9.678;2023-05-07T09:15:10;11.83;74.55
65374;SHT31;52070;53.760;9.678;2023-05-07T09:17:37;11.87;74.72
65374;SHT31;52070;53.760;9.678;2023-05-07T09:20:06;12.04;74.04
65374;SHT31;52070;53.760;9.678;2023-05-07T09:22:33;11.97;73.73
65374;SHT31;52070;53.760;9.678;2023-05-07T09:25:00;12.06;74.17
65374;SHT31;52070;53.760;9.678;2023-05-07T09:27:30;12.06;73.08
65374;SHT31;52070;53.760;9.678;2023-05-07T09:29:57;12.04;73.74
65374;SHT31;52070;53.760;9.678;2023-05-07T09:32:24;12.08;72.91
65374;SHT31;52070;53.760;9.678;2023-05-07T09:34:52;12.10;72.85
65374;SHT31;52070;53.760;9.678;2023-05-07T09:37:19;12.23;73.29
65374;SHT31;52070;53.760;9.678;2023-05-07T09:39:48;12.27;73.06
65374;SHT31;52070;53.760;9.678;2023-05-07T09:42:16;12.40;72.08
65374;SHT31;52070;53.760;9.678;2023-05-07T09:44:44;12.23;72.45
65374;SHT31;52070;53.760;9.678;2023-05-07T09:47:11;12.18;72.47
65374;SHT31;52070;53.760;9.678;2023-05-07T09:49:46;12.13;71.37
65374;SHT31;52070;53.760;9.678;2023-05-07T09:52:14;12.01;72.09
65374;SHT31;52070;53.760;9.678;2023-05-07T09:54:43;11.96;73.13
65374;SHT31;52070;53.760;9.678;2023-05-07T09:57:11;12.13;73.11
65374;SHT31;52070;53.760;9.678;2023-05-07T09:59:38;12.31;73.15
65374;SHT31;52070;53.760;9.678;2023-05-07T10:02:09;12.38;72.52
65374;SHT31;52070;53.760;9.678;2023-05-07T10:04:36;12.47;71.72
65374;SHT31;52070;53.760;9.678;2023-05-07T10:07:04;12.51;72.61
65374;SHT31;52070;53.760;9.678;2023-05-07T10:09:32;12.59;71.53
65374;SHT31;52070;53.760;9.678;2023-05-07T10:11:59;12.59;71.25
65374;SHT31;52070;53.760;9.678;2023-05-07T10:14:27;12.57;71.29
65374;SHT31;52070;53.760;9.678;2023-05-07T10:16:54;12.69;72.15
65374;SHT31;52070;53.760;9.678;2023-05-07T10:19:24;12.85;72.12
65374;SHT31;52070;53.760;9.678;2023-05-07T10:21:54;13.06;69.56
65374;SHT31;52070;53.760;9.678;2023-05-07T10:24:26;12.98;68.52
65374;SHT31;52070;53.760;9.678;2023-05-07T10:26:56;13.05;70.21
65374;SHT31;52070;53.760;9.678;2023-05-07T10:29:33;13.23;69.75
65374;SHT31;52070;53.760;9.678;2023-05-07T10:32:13;13.22;69.07
65374;SHT31;52070;53.760;9.678;2023-05-07T10:34:48;13.30;69.60
65374;SHT31;52070;53.760;9.678;2023-05-07T10:37:16;13.24;68.72
65374;SHT31;52070;53.760;9.678;2023-05-07T10:39:44;13.33;69.29
65374;SHT31;52070;53.760;9.678;2023-05-07T10:42:13;13.52;69.93
65374;SHT31;52070;53.760;9.678;2023-05-07T10:44:40;13.40;67.99
65374;SHT31;52070;53.760;9.678;2023-05-07T10:47:08;13.40;69.59
65374;SHT31;52070;53.760;9.678;2023-05-07T10:49:36;13.38;68.62
65374;SHT31;52070;53.760;9.678;2023-05-07T10:52:13;13.50;68.81
65374;SHT31;52070;53.760;9.678;2023-05-07T10:54:41;13.43;68.37
65374;SHT31;52070;53.760;9.678;2023-05-07T10:57:32;13.56;68.57
65374;SHT31;52070;53.760;9.678;2023-05-07T11:00:01;13.70;69.36
65374;SHT31;52070;53.760;9.678;2023-05-07T11:03:04;13.84;69.03
65374;SHT31;52070;53.760;9.678;2023-05-07T11:05:33;13.98;66.91
65374;SHT31;52070;53.760;9.678;2023-05-07T11:08:02;13.81;66.90
65374;SHT31;52070;53.760;9.678;2023-05-07T11:10:49;13.78;66.92
65374;SHT31;52070;53.760;9.678;2023-05-07T11:13:17;13.74;67.22
65374;SHT31;52070;53.760;9.678;2023-05-07T11:15:45;13.74;67.63
65374;SHT31;52070;53.760;9.678;2023-05-07T11:18:13;14.01;67.94
65374;SHT31;52070;53.760;9.678;2023-05-07T11:20:54;14.28;66.87
65374;SHT31;52070;53.760;9.678;2023-05-07T11:26:09;14.24;65.07
65374;SHT31;52070;53.760;9.678;2023-05-07T11:28:37;14.13;66.56
65374;SHT31;52070;53.760;9.678;2023-05-07T11:31:04;14.56;67.01
65374;SHT31;52070;53.760;9.678;2023-05-07T11:33:32;14.54;63.55
65374;SHT31;52070;53.760;9.678;2023-05-07T11:35:59;14.42;65.31
65374;SHT31;52070;53.760;9.678;2023-05-07T11:38:28;14.38;65.39
65374;SHT31;52070;53.760;9.678;2023-05-07T11:40:58;14.42;65.43
65374;SHT31;52070;53.760;9.678;2023-05-07T11:43:27;14.59;64.55
65374;SHT31;52070;53.760;9.678;2023-05-07T11:45:54;14.76;66.63
65374;SHT31;52070;53.760;9.678;2023-05-07T11:48:21;15.11;64.05
65374;SHT31;52070;53.760;9.678;2023-05-07T11:50:52;14.92;64.47
65374;SHT31;52070;53.760;9.678;2023-05-07T11:53:20;14.95;64.38
65374;SHT31;52070;53.760;9.678;2023-05-07T11:55:47;14.66;62.73
65374;SHT31;52070;53.760;9.678;2023-05-07T11:58:21;14.41;64.78
65374;SHT31;52070;53.760;9.678;2023-05-07T12:00:49;14.66;64.43
65374;SHT31;52070;53.760;9.678;2023-05-07T12:03:16;15.06;63.86
65374;SHT31;52070;53.760;9.678;2023-05-07T12:05:44;15.27;64.33
65374;SHT31;52070;53.760;9.678;2023-05-07T12:08:13;15.39;62.40
65374;SHT31;52070;53.760;9.678;2023-05-07T12:10:40;15.36;62.25
65374;SHT31;52070;53.760;9.678;2023-05-07T12:13:14;15.26;62.92
65374;SHT31;52070;53.760;9.678;2023-05-07T12:15:41;15.50;63.15
65374;SHT31;52070;53.760;9.678;2023-05-07T12:18:10;15.87;62.01
65374;SHT31;52070;53.760;9.678;2023-05-07T12:20:38;16.08;61.06
65374;SHT31;52070;53.760;9.678;2023-05-07T12:23:05;15.67;59.96
65374;SHT31;52070;53.760;9.678;2023-05-07T12:25:34;15.85;61.11
65374;SHT31;52070;53.760;9.678;2023-05-07T12:28:01;16.06;62.26
65374;SHT31;52070;53.760;9.678;2023-05-07T12:30:30;16.11;61.63
65374;SHT31;52070;53.760;9.678;2023-05-07T12:32:58;16.02;60.93
65374;SHT31;52070;53.760;9.678;2023-05-07T12:35:30;15.98;60.70
65374;SHT31;52070;53.760;9.678;2023-05-07T12:37:58;15.78;59.04
65374;SHT31;52070;53.760;9.678;2023-05-07T12:40:35;16.52;60.89
65374;SHT31;52070;53.760;9.678;2023-05-07T12:43:02;16.76;57.72
65374;SHT31;52070;53.760;9.678;2023-05-07T12:45:29;17.26;59.44
65374;SHT31;52070;53.760;9.678;2023-05-07T12:48:01;16.97;56.49
65374;SHT31;52070;53.760;9.678;2023-05-07T12:50:32;17.51;56.70
65374;SHT31;52070;53.760;9.678;2023-05-07T12:52:59;17.74;56.84
65374;SHT31;52070;53.760;9.678;2023-05-07T12:55:29;17.48;54.92
65374;SHT31;52070;53.760;9.678;2023-05-07T12:57:56;17.45;56.65
65374;SHT31;52070;53.760;9.678;2023-05-07T13:00:33;17.23;55.79
65374;SHT31;52070;53.760;9.678;2023-05-07T13:03:01;16.86;57.75
65374;SHT31;52070;53.760;9.678;2023-05-07T13:05:28;16.84;57.04
65374;SHT31;52070;53.760;9.678;2023-05-07T13:07:56;16.96;57.66
65374;SHT31;52070;53.760;9.678;2023-05-07T13:10:24;17.03;56.07
65374;SHT31;52070;53.760;9.678;2023-05-07T13:12:51;17.03;56.38
65374;SHT31;52070;53.760;9.678;2023-05-07T13:15:18;17.40;55.92
65374;SHT31;52070;53.760;9.678;2023-05-07T13:17:45;17.77;56.65
65374;SHT31;52070;53.760;9.678;2023-05-07T13:20:12;18.10;54.37
65374;SHT31;52070;53.760;9.678;2023-05-07T13:22:39;18.60;54.14
65374;SHT31;52070;53.760;9.678;2023-05-07T13:25:09;18.94;54.24
65374;SHT31;52070;53.760;9.678;2023-05-07T13:27:36;18.97;51.95
65374;SHT31;52070;53.760;9.678;2023-05-07T13:30:04;19.00;51.95
65374;SHT31;52070;53.760;9.678;2023-05-07T13:32:31;19.59;54.80
65374;SHT31;52070;53.760;9.678;2023-05-07T13:34:58;19.52;50.54
65374;SHT31;52070;53.760;9.678;2023-05-07T13:37:25;19.50;52.80
65374;SHT31;52070;53.760;9.678;2023-05-07T13:39:52;20.09;50.93
65374;SHT31;52070;53.760;9.678;2023-05-07T13:42:20;20.16;49.49
65374;SHT31;52070;53.760;9.678;2023-05-07T13:44:47;20.02;49.62
65374;SHT31;52070;53.760;9.678;2023-05-07T13:47:14;19.72;48.65
65374;SHT31;52070;53.760;9.678;2023-05-07T13:49:41;19.45;48.73
65374;SHT31;52070;53.760;9.678;2023-05-07T13:52:08;19.51;49.89
65374;SHT31;52070;53.760;9.678;2023-05-07T13:54:35;19.54;50.90
65374;SHT31;52070;53.760;9.678;2023-05-07T13:57:02;20.13;49.83
65374;SHT31;52070;53.760;9.678;2023-05-07T13:59:30;19.65;46.97
65374;SHT31;52070;53.760;9.678;2023-05-07T14:01:57;19.11;50.55
65374;SHT31;52070;53.760;9.678;2023-05-07T14:04:24;19.72;49.54
65374;SHT31;52070;53.760;9.678;2023-05-07T14:06:51;20.09;49.29
65374;SHT31;52070;53.760;9.678;2023-05-07T14:09:18;19.59;47.94
65374;SHT31;52070;53.760;9.678;2023-05-07T14:11:45;19.47;49.54
65374;SHT31;52070;53.760;9.678;2023-05-07T14:14:13;19.59;50.42
65374;SHT31;52070;53.760;9.678;2023-05-07T14:16:41;19.18;48.59
65374;SHT31;52070;53.760;9.678;2023-05-07T14:19:08;19.62;50.10
65374;SHT31;52070;53.760;9.678;2023-05-07T14:21:35;20.16;49.07
65374;SHT31;52070;53.760;9.678;2023-05-07T14:24:02;20.43;47.68
65374;SHT31;52070;53.760;9.678;2023-05-07T14:26:30;20.78;47.96
65374;SHT31;52070;53.760;9.678;2023-05-07T14:28:57;20.74;45.99
65374;SHT31;52070;53.760;9.678;2023-05-07T14:31:24;20.37;48.24
65374;SHT31;52070;53.760;9.678;2023-05-07T14:33:53;19.97;46.82
65374;SHT31;52070;53.760;9.678;2023-05-07T14:36:20;19.01;47.21
65374;SHT31;52070;53.760;9.678;2023-05-07T14:38:48;18.90;51.17
65374;SHT31;52070;53.760;9.678;2023-05-07T14:41:15;18.74;49.40
65374;SHT31;52070;53.760;9.678;2023-05-07T14:43:42;18.68;50.63
65374;SHT31;52070;53.760;9.678;2023-05-07T14:46:16;18.42;51.10
65374;SHT31;52070;53.760;9.678;2023-05-07T14:48:43;18.06;53.03
65374;SHT31;52070;53.760;9.678;2023-05-07T14:51:12;18.08;52.24
65374;SHT31;52070;53.760;9.678;2023-05-07T14:53:41;17.92;51.33
65374;SHT31;52070;53.760;9.678;2023-05-07T14:56:08;17.82;51.82
65374;SHT31;52070;53.760;9.678;2023-05-07T14:58:35;17.67;52.41
65374;SHT31;52070;53.760;9.678;2023-05-07T15:01:03;17.77;52.78
65374;SHT31;52070;53.760;9.678;2023-05-07T15:03:30;17.65;52.15
65374;SHT31;52070;53.760;9.678;2023-05-07T15:05:57;17.50;53.22
65374;SHT31;52070;53.760;9.678;2023-05-07T15:08:25;17.35;54.06
65374;SHT31;52070;53.760;9.678;2023-05-07T15:10:52;17.26;54.65
65374;SHT31;52070;53.760;9.678;2023-05-07T15:13:20;16.96;53.00
65374;SHT31;52070;53.760;9.678;2023-05-07T15:15:48;17.09;54.95
65374;SHT31;52070;53.760;9.678;2023-05-07T15:18:15;17.27;54.95
65374;SHT31;52070;53.760;9.678;2023-05-07T15:20:42;17.35;54.26
65374;SHT31;52070;53.760;9.678;2023-05-07T15:23:09;17.41;54.75
65374;SHT31;52070;53.760;9.678;2023-05-07T15:25:39;17.48;55.16
65374;SHT31;52070;53.760;9.678;2023-05-07T15:28:06;17.35;55.44
65374;SHT31;52070;53.760;9.678;2023-05-07T15:30:33;17.31;55.58
65374;SHT31;52070;53.760;9.678;2023-05-07T15:33:01;17.17;55.06
65374;SHT31;52070;53.760;9.678;2023-05-07T15:35:28;16.70;54.85
65374;SHT31;52070;53.760;9.678;2023-05-07T15:37:55;16.69;55.11
65374;SHT31;52070;53.760;9.678;2023-05-07T15:40:22;16.70;56.14
65374;SHT31;52070;53.760;9.678;2023-05-07T15:42:54;16.62;54.96
65374;SHT31;52070;53.760;9.678;2023-05-07T15:45:21;16.42;56.14
65374;SHT31;52070;53.760;9.678;2023-05-07T15:47:49;16.42;55.70